createdAt,value
2019-02-20T00:00:24.958Z,31.00
2019-02-20T00:03:00.815Z,30.87
2019-02-20T00:05:31.223Z,33.70
2019-02-20T00:08:04.819Z,29.57
2019-02-20T00:10:36.608Z,27.17
2019-02-20T00:13:08.449Z,29.00
2019-02-20T00:15:38.307Z,29.23
2019-02-20T00:18:08.510Z,28.00
2019-02-20T00:20:38.590Z,27.97
2019-02-20T00:23:10.865Z,28.83
2019-02-20T00:25:41.938Z,26.13
2019-02-20T00:28:13.026Z,29.70
2019-02-20T00:30:43.976Z,28.80
2019-02-20T00:33:19.447Z,29.87
2019-02-20T00:35:53.123Z,31.87
2019-02-20T00:38:24.923Z,29.93
2019-02-20T00:40:56.683Z,29.87
2019-02-20T00:43:31.005Z,32.20
2019-02-20T00:46:11.297Z,31.30
2019-02-20T00:48:52.671Z,28.50
2019-02-20T00:51:34.653Z,31.03
2019-02-20T00:54:09.496Z,28.97
2019-02-20T00:56:41.195Z,30.07
2019-02-20T00:59:13.088Z,27.63
2019-02-20T01:01:46.965Z,29.00
2019-02-20T01:04:21.690Z,28.40
2019-02-20T01:07:02.672Z,29.07
2019-02-20T01:09:32.925Z,27.63
2019-02-20T01:12:07.822Z,30.37
2019-02-20T01:14:41.997Z,30.17
2019-02-20T01:17:20.159Z,30.20
2019-02-20T01:19:50.915Z,31.63
2019-02-20T01:22:27.428Z,26.83
2019-02-20T01:25:02.651Z,29.10
2019-02-20T01:27:38.044Z,28.47
2019-02-20T01:30:13.195Z,29.07
2019-02-20T01:32:48.275Z,30.87
2019-02-20T01:35:19.415Z,29.40
2019-02-20T01:37:52.922Z,29.83
2019-02-20T01:40:22.694Z,29.37
2019-02-20T01:42:55.306Z,32.13
2019-02-20T01:45:25.097Z,28.37
2019-02-20T01:47:55.004Z,28.50
2019-02-20T01:50:24.922Z,26.80
2019-02-20T01:52:54.841Z,30.57
2019-02-20T01:55:28.009Z,30.33
2019-02-20T01:57:59.382Z,27.57
2019-02-20T02:00:29.294Z,29.70
2019-02-20T02:02:59.090Z,27.67
2019-02-20T02:05:29.877Z,26.80
2019-02-20T02:08:04.266Z,27.60
2019-02-20T02:10:36.310Z,26.87
2019-02-20T02:13:06.185Z,29.17
2019-02-20T02:15:36.264Z,29.90
2019-02-20T02:18:06.184Z,26.80
2019-02-20T02:20:39.293Z,32.07
2019-02-20T02:23:09.185Z,31.40
2019-02-20T02:25:45.787Z,29.40
2019-02-20T02:28:16.385Z,31.33
2019-02-20T02:30:46.306Z,28.97
2019-02-20T02:33:16.585Z,29.33
2019-02-20T02:35:50.214Z,29.50
2019-02-20T02:38:22.537Z,28.57
2019-02-20T02:40:52.811Z,30.53
2019-02-20T02:43:22.753Z,31.17
2019-02-20T02:45:52.562Z,30.17
2019-02-20T02:48:23.082Z,28.57
2019-02-20T02:50:53.263Z,27.90
2019-02-20T02:53:30.245Z,30.07
2019-02-20T02:55:57.271Z,33.30
2019-02-20T02:58:27.085Z,33.30
2019-02-20T03:00:59.137Z,28.47
2019-02-20T03:03:34.662Z,31.37
2019-02-20T03:06:05.811Z,30.90
2019-02-20T03:08:35.833Z,31.77
2019-02-20T03:11:06.790Z,33.80
2019-02-20T03:13:36.631Z,32.67
2019-02-20T03:16:09.203Z,34.13
2019-02-20T03:18:39.046Z,36.73
2019-02-20T03:21:09.085Z,32.93
2019-02-20T03:23:41.566Z,35.87
2019-02-20T03:26:12.312Z,37.33
2019-02-20T03:28:43.034Z,32.40
2019-02-20T03:31:14.654Z,33.70
2019-02-20T03:33:48.238Z,32.73
2019-02-20T03:36:22.510Z,31.70
2019-02-20T03:38:56.252Z,34.37
2019-02-20T03:41:26.123Z,33.93
2019-02-20T03:43:59.790Z,34.37
2019-02-20T03:46:29.570Z,32.37
2019-02-20T03:48:59.354Z,32.17
2019-02-20T03:51:29.266Z,31.53
2019-02-20T03:54:02.355Z,36.73
2019-02-20T03:56:33.187Z,32.13
2019-02-20T03:59:03.081Z,33.50
2019-02-20T04:01:32.907Z,32.23
2019-02-20T04:04:02.783Z,33.77
2019-02-20T04:06:34.820Z,37.40
2019-02-20T04:09:07.391Z,32.97
2019-02-20T04:11:42.819Z,34.70
2019-02-20T04:14:15.334Z,34.93
2019-02-20T04:16:45.126Z,32.93
2019-02-20T04:19:15.042Z,35.93
2019-02-20T04:21:45.050Z,34.37
2019-02-20T04:24:14.834Z,33.70
2019-02-20T04:26:47.338Z,35.50
2019-02-20T04:29:19.405Z,36.83
2019-02-20T04:31:50.484Z,37.23
2019-02-20T04:34:23.402Z,34.17
2019-02-20T04:36:55.908Z,34.70
2019-02-20T04:39:27.885Z,35.00
2019-02-20T04:42:03.472Z,36.40
2019-02-20T04:44:40.539Z,38.00
2019-02-20T04:47:21.752Z,33.30
2019-02-20T04:49:50.728Z,34.83
2019-02-20T04:52:25.179Z,34.50
2019-02-20T04:54:58.545Z,35.63
2019-02-20T04:57:33.926Z,36.07
2019-02-20T05:00:05.057Z,34.33
2019-02-20T05:02:44.904Z,33.50
2019-02-20T05:05:17.847Z,32.37
2019-02-20T05:07:48.936Z,31.50
2019-02-20T05:10:24.178Z,33.47
2019-02-20T05:12:58.861Z,30.07
2019-02-20T05:15:31.430Z,30.70
2019-02-20T05:18:01.920Z,34.30
2019-02-20T05:20:39.585Z,33.60
2019-02-20T05:23:09.449Z,30.30
2019-02-20T05:25:44.307Z,27.23
2019-02-20T05:28:14.138Z,28.13
2019-02-20T05:30:43.903Z,28.53
2019-02-20T05:33:16.689Z,31.53
2019-02-20T05:35:46.502Z,27.70
2019-02-20T05:38:18.769Z,32.37
2019-02-20T05:40:51.071Z,29.97
2019-02-20T05:43:28.228Z,26.40
2019-02-20T05:45:58.053Z,24.37
2019-02-20T05:48:27.959Z,25.77
2019-02-20T05:50:57.769Z,24.47
2019-02-20T05:53:31.619Z,22.77
2019-02-20T05:56:09.487Z,26.73
2019-02-20T05:58:39.397Z,24.87
2019-02-20T06:01:09.203Z,24.27
2019-02-20T06:03:43.976Z,23.47
2019-02-20T06:06:15.184Z,23.30
2019-02-20T06:08:51.148Z,24.33
2019-02-20T06:11:25.056Z,26.20
2019-02-20T06:13:54.868Z,25.50
2019-02-20T06:16:24.834Z,24.40
2019-02-20T06:18:57.754Z,34.33
2019-02-20T06:21:30.220Z,31.90
2019-02-20T06:24:02.715Z,29.83
2019-02-20T06:26:37.205Z,30.83
2019-02-20T06:29:18.887Z,32.00
2019-02-20T06:31:50.535Z,31.37
2019-02-20T06:34:26.007Z,28.03
2019-02-20T06:36:57.078Z,27.40
2019-02-20T06:39:30.085Z,29.57
2019-02-20T06:41:59.933Z,30.77
2019-02-20T06:44:29.896Z,30.70
2019-02-20T06:47:15.225Z,30.37
2019-02-20T06:49:50.995Z,31.57
2019-02-20T06:52:30.394Z,29.13
2019-02-20T06:55:07.692Z,31.87
2019-02-20T06:57:55.159Z,33.33
2019-02-20T07:00:29.798Z,32.37
2019-02-20T07:03:12.727Z,31.23
2019-02-20T07:05:41.610Z,33.10
2019-02-20T07:08:41.981Z,31.83
2019-02-20T07:11:26.256Z,32.30
2019-02-20T07:14:01.312Z,30.47
2019-02-20T07:17:24.254Z,28.50
2019-02-20T07:20:43.396Z,29.23
2019-02-20T07:23:43.330Z,26.83
2019-02-20T07:26:39.571Z,28.33
2019-02-20T07:29:28.679Z,25.90
2019-02-20T07:32:04.005Z,25.67
2019-02-20T07:34:35.397Z,28.83
2019-02-20T07:37:12.762Z,25.77
2019-02-20T07:39:48.511Z,24.77
2019-02-20T07:42:26.357Z,24.97
2019-02-20T07:44:57.551Z,28.63
2019-02-20T07:47:34.618Z,31.50
2019-02-20T07:50:12.290Z,26.87
2019-02-20T07:52:43.356Z,27.43
2019-02-20T07:55:15.741Z,30.60
2019-02-20T07:57:49.203Z,26.60
2019-02-20T08:00:24.438Z,26.93
2019-02-20T08:02:55.698Z,28.10
2019-02-20T08:05:25.783Z,25.27
2019-02-20T08:07:57.881Z,23.87
2019-02-20T08:10:52.679Z,24.80
2019-02-20T08:13:27.388Z,25.43
2019-02-20T08:16:04.486Z,24.37
2019-02-20T08:18:38.890Z,22.93
2019-02-20T08:21:13.832Z,21.07
2019-02-20T08:23:55.724Z,22.17
2019-02-20T08:26:34.410Z,16.03
2019-02-20T08:29:19.455Z,16.40
2019-02-20T08:32:18.051Z,19.57
2019-02-20T08:35:10.191Z,18.27
2019-02-20T08:37:57.829Z,17.47
2019-02-20T08:40:50.316Z,17.73
2019-02-20T08:43:21.083Z,18.63
2019-02-20T08:45:58.650Z,18.17
2019-02-20T08:48:33.104Z,15.90
2019-02-20T08:51:14.417Z,15.67
2019-02-20T08:53:44.292Z,11.30
2019-02-20T08:56:35.761Z,7.97
2019-02-20T08:59:15.098Z,12.80
2019-02-20T09:01:46.398Z,13.27
2019-02-20T09:04:21.396Z,11.97
2019-02-20T09:06:53.853Z,8.87
2019-02-20T09:09:30.104Z,6.97
2019-02-20T09:12:03.893Z,6.37
2019-02-20T09:14:43.985Z,4.73
2019-02-20T09:17:23.019Z,6.20
2019-02-20T09:19:55.670Z,7.83
2019-02-20T09:22:43.555Z,6.50
2019-02-20T09:25:19.974Z,7.87
2019-02-20T09:27:51.114Z,7.30
2019-02-20T09:30:36.293Z,6.10
2019-02-20T09:33:30.310Z,5.13
2019-02-20T09:36:15.946Z,5.93
2019-02-20T09:38:55.369Z,6.80
2019-02-20T09:41:27.074Z,6.00
2019-02-20T09:43:59.558Z,9.10
2019-02-20T09:46:29.945Z,5.77
2019-02-20T09:49:08.008Z,5.57
2019-02-20T09:51:47.684Z,12.27
2019-02-20T09:54:34.097Z,5.70
2019-02-20T09:57:23.287Z,7.20
2019-02-20T09:59:57.819Z,5.03
2019-02-20T10:02:43.180Z,5.80
2019-02-20T10:05:18.892Z,5.10
2019-02-20T10:07:49.024Z,4.00
2019-02-20T10:10:41.248Z,4.53
2019-02-20T10:13:19.285Z,4.83
2019-02-20T10:16:07.616Z,5.77
2019-02-20T10:19:01.459Z,4.67
2019-02-20T10:21:56.644Z,5.30
2019-02-20T10:24:54.473Z,4.70
2019-02-20T10:27:40.950Z,4.80
2019-02-20T10:30:25.309Z,5.70
2019-02-20T10:33:22.605Z,4.63
2019-02-20T10:36:09.169Z,4.70
2019-02-20T10:38:57.914Z,5.90
2019-02-20T10:41:51.417Z,6.23
2019-02-20T10:44:26.434Z,7.17
2019-02-20T10:47:09.545Z,5.20
2019-02-20T10:49:53.963Z,6.00
2019-02-20T10:52:42.686Z,5.87
2019-02-20T10:55:32.474Z,6.23
2019-02-20T10:58:10.151Z,7.37
2019-02-20T11:00:44.827Z,5.97
2019-02-20T11:03:25.885Z,5.77
2019-02-20T11:06:12.845Z,6.60
2019-02-20T11:08:59.252Z,6.67
2019-02-20T11:11:54.538Z,5.77
2019-02-20T11:14:52.433Z,5.20
2019-02-20T11:17:51.190Z,5.90
2019-02-20T11:20:48.264Z,6.33
2019-02-20T11:23:23.722Z,5.30
2019-02-20T11:26:18.327Z,5.30
2019-02-20T11:29:22.633Z,5.00
2019-02-20T11:32:17.472Z,7.20
2019-02-20T11:35:11.811Z,5.67
2019-02-20T11:37:55.786Z,5.40
2019-02-20T11:40:30.183Z,5.20
2019-02-20T11:43:11.592Z,5.63
2019-02-20T11:45:48.988Z,5.60
2019-02-20T11:48:39.788Z,5.00
2019-02-20T11:51:17.047Z,6.13
2019-02-20T11:53:50.570Z,6.97
2019-02-20T11:56:38.747Z,6.37
2019-02-20T11:59:46.241Z,6.83
2019-02-20T12:02:37.340Z,5.57
2019-02-20T12:05:27.419Z,5.80
2019-02-20T12:08:07.686Z,7.40
2019-02-20T12:10:55.354Z,7.10
2019-02-20T12:13:52.222Z,8.73
2019-02-20T12:16:52.434Z,8.07
2019-02-20T12:19:44.978Z,6.63
2019-02-20T12:22:34.698Z,9.80
2019-02-20T12:25:29.830Z,6.50
2019-02-20T12:28:26.481Z,7.43
2019-02-20T12:31:20.178Z,6.77
2019-02-20T12:34:19.841Z,7.00
2019-02-20T12:37:17.215Z,7.00
2019-02-20T12:40:15.233Z,6.87
2019-02-20T12:43:08.145Z,6.80
2019-02-20T12:45:54.916Z,7.30
2019-02-20T12:49:01.459Z,8.10
2019-02-20T12:51:36.816Z,7.53
2019-02-20T12:54:30.361Z,7.37
2019-02-20T13:03:26.245Z,8.03
2019-02-20T13:06:11.909Z,7.53
2019-02-20T13:08:50.342Z,9.17
2019-02-20T13:11:29.498Z,9.20
2019-02-20T13:14:05.736Z,7.73
2019-02-20T13:16:44.545Z,8.37
2019-02-20T13:19:30.763Z,8.43
2019-02-20T13:22:20.167Z,8.47
2019-02-20T13:24:57.885Z,8.33
2019-02-20T13:27:40.245Z,12.27
2019-02-20T13:30:20.519Z,8.77
2019-02-20T13:35:57.234Z,8.23
2019-02-20T13:38:31.948Z,8.13
2019-02-20T13:41:03.617Z,9.23
2019-02-20T13:43:38.665Z,10.50
2019-02-20T13:46:15.924Z,13.83
2019-02-20T13:48:50.640Z,9.93
2019-02-20T13:51:28.602Z,8.77
2019-02-20T13:54:06.929Z,8.13
2019-02-20T13:56:42.641Z,7.67
2019-02-20T13:59:25.127Z,9.90
2019-02-20T14:02:07.511Z,13.63
2019-02-20T14:04:44.319Z,12.83
2019-02-20T14:07:20.792Z,9.93
2019-02-20T14:09:54.443Z,9.10
2019-02-20T14:12:25.323Z,8.37
2019-02-20T14:15:02.443Z,10.27
2019-02-20T14:17:35.663Z,9.57
2019-02-20T14:20:11.642Z,11.77
2019-02-20T14:22:50.704Z,15.23
2019-02-20T14:25:25.817Z,7.93
2019-02-20T14:27:57.133Z,7.30
2019-02-20T14:30:30.322Z,7.73
2019-02-20T14:33:00.695Z,9.80
2019-02-20T14:35:32.840Z,8.67
2019-02-20T14:38:02.355Z,8.10
2019-02-20T14:40:32.544Z,9.00
2019-02-20T14:43:02.931Z,9.03
2019-02-20T14:45:36.757Z,7.23
2019-02-20T14:48:12.022Z,9.20
2019-02-20T14:50:46.139Z,9.87
2019-02-20T14:53:23.744Z,9.43
2019-02-20T14:56:01.675Z,9.37
2019-02-20T14:58:42.613Z,7.67
2019-02-20T15:01:16.791Z,10.40
2019-02-20T15:03:53.279Z,8.97
2019-02-20T15:06:32.194Z,10.93
2019-02-20T15:09:10.310Z,8.80
2019-02-20T15:11:52.108Z,8.93
2019-02-20T15:14:32.505Z,9.90
2019-02-20T15:17:09.646Z,11.97
2019-02-20T15:19:45.894Z,10.87
2019-02-20T15:22:20.602Z,10.10
2019-02-20T15:25:02.174Z,10.30
2019-02-20T15:27:38.442Z,11.07
2019-02-20T15:30:21.128Z,13.53
2019-02-20T15:32:58.453Z,12.47
2019-02-20T15:35:33.124Z,12.87
2019-02-20T15:38:10.911Z,11.23
2019-02-20T15:40:47.126Z,9.47
2019-02-20T15:43:26.626Z,12.97
2019-02-20T15:46:06.567Z,12.00
2019-02-20T15:48:41.811Z,10.77
2019-02-20T15:51:24.243Z,10.80
2019-02-20T15:53:59.242Z,13.17
2019-02-20T15:56:34.547Z,9.20
2019-02-20T15:59:10.532Z,11.97
2019-02-20T16:01:50.912Z,13.00
2019-02-20T16:04:31.645Z,13.23
2019-02-20T16:07:07.283Z,14.73
2019-02-20T16:09:43.925Z,13.67
2019-02-20T16:12:19.555Z,11.13
2019-02-20T16:14:55.843Z,13.60
2019-02-20T16:17:37.783Z,11.83
2019-02-20T16:20:17.168Z,12.80
2019-02-20T16:22:52.646Z,10.87
2019-02-20T16:25:30.173Z,11.33
2019-02-20T16:28:05.785Z,10.73
2019-02-20T16:30:46.628Z,11.53
2019-02-20T16:33:29.532Z,11.73
2019-02-20T16:36:01.936Z,10.33
2019-02-20T16:38:37.734Z,10.63
2019-02-20T16:41:15.013Z,9.27
2019-02-20T16:43:48.765Z,8.77
2019-02-20T16:46:25.978Z,22.00
2019-02-20T16:49:01.944Z,12.43
2019-02-20T16:51:34.104Z,8.90
2019-02-20T16:54:10.102Z,8.53
2019-02-20T16:56:44.441Z,8.27
2019-02-20T16:59:14.859Z,8.93
2019-02-20T17:01:50.441Z,8.87
2019-02-20T17:04:23.878Z,11.70
2019-02-20T17:06:57.076Z,14.20
2019-02-20T17:09:31.081Z,12.40
2019-02-20T17:12:06.185Z,19.13
2019-02-20T17:14:38.858Z,14.37
2019-02-20T17:17:20.817Z,20.63
2019-02-20T17:20:05.759Z,21.10
2019-02-20T17:22:41.893Z,14.43
2019-02-20T17:25:17.200Z,14.77
2019-02-20T17:27:54.948Z,12.67
2019-02-20T17:30:30.177Z,11.43
2019-02-20T17:33:11.911Z,15.80
2019-02-20T17:35:46.611Z,14.43
2019-02-20T17:38:29.254Z,14.33
2019-02-20T17:41:05.319Z,13.63
2019-02-20T17:43:42.246Z,13.53
2019-02-20T17:46:16.258Z,13.23
2019-02-20T17:48:48.327Z,13.00
2019-02-20T17:51:20.266Z,14.03
2019-02-20T17:53:52.769Z,12.30
2019-02-20T17:56:28.522Z,11.53
2019-02-20T17:59:04.259Z,15.57
2019-02-20T18:01:35.278Z,15.17
2019-02-20T18:04:14.280Z,14.70
2019-02-20T18:06:48.766Z,15.50
2019-02-20T18:09:23.877Z,15.70
2019-02-20T18:12:03.275Z,15.57
2019-02-20T18:14:37.678Z,11.93
2019-02-20T18:17:19.409Z,12.23
2019-02-20T18:19:53.043Z,15.80
2019-02-20T18:22:38.698Z,11.97
2019-02-20T18:25:15.907Z,9.90
2019-02-20T18:27:47.338Z,9.20
2019-02-20T18:30:21.118Z,9.63
2019-02-20T18:32:52.067Z,11.17
2019-02-20T18:35:22.763Z,9.13
2019-02-20T18:37:55.742Z,9.70
2019-02-20T18:40:26.512Z,13.43
2019-02-20T18:42:58.748Z,15.67
2019-02-20T18:45:29.451Z,19.10
2019-02-20T18:47:59.946Z,19.77
2019-02-20T18:50:33.996Z,27.33
2019-02-20T18:53:05.799Z,21.67
2019-02-20T18:55:37.127Z,18.60
2019-02-20T18:58:11.236Z,18.43
2019-02-20T19:00:44.439Z,23.23
2019-02-20T19:03:23.048Z,25.57
2019-02-20T19:05:58.574Z,22.07
2019-02-20T19:08:45.377Z,15.70
2019-02-20T19:11:39.944Z,16.93
2019-02-20T19:14:32.740Z,18.10
2019-02-20T19:17:23.349Z,19.63
2019-02-20T19:20:20.475Z,16.10
2019-02-20T19:23:15.719Z,19.30
2019-02-20T19:26:10.180Z,16.33
2019-02-20T19:28:44.614Z,16.07
2019-02-20T19:32:00.105Z,16.17
2019-02-20T19:35:08.101Z,17.43
2019-02-20T19:38:31.858Z,18.67
2019-02-20T19:41:38.293Z,16.27
2019-02-20T19:44:43.209Z,13.77
2019-02-20T19:48:02.841Z,14.37
2019-02-20T19:51:18.763Z,14.93
2019-02-20T19:54:13.640Z,12.03
2019-02-20T19:57:08.858Z,13.23
2019-02-20T20:00:28.715Z,15.33
2019-02-20T20:03:26.182Z,13.73
2019-02-20T20:06:38.252Z,16.27
2019-02-20T20:09:41.008Z,13.47
2019-02-20T20:12:51.043Z,10.60
2019-02-20T20:16:01.372Z,11.30
2019-02-20T20:19:27.532Z,10.00
2019-02-20T20:22:37.914Z,10.93
2019-02-20T20:25:35.051Z,12.23
2019-02-20T20:28:52.295Z,13.27
2019-02-20T20:35:11.419Z,9.23
2019-02-20T20:41:36.795Z,9.67
2019-02-20T20:44:58.627Z,10.00
2019-02-20T20:47:50.239Z,9.03
2019-02-20T20:51:11.447Z,11.53
2019-02-20T20:53:56.178Z,9.50
2019-02-20T20:57:00.391Z,12.07
2019-02-20T20:59:48.100Z,10.17
2019-02-20T21:02:25.940Z,10.03
2019-02-20T21:05:20.487Z,10.77
2019-02-20T21:08:21.242Z,10.77
2019-02-20T21:10:58.060Z,13.60
2019-02-20T21:13:40.260Z,16.20
2019-02-20T21:16:29.400Z,16.57
2019-02-20T21:19:30.505Z,17.60
2019-02-20T21:22:38.673Z,12.83
2019-02-20T21:28:51.054Z,12.40
2019-02-20T21:32:24.047Z,15.97
2019-02-20T21:35:26.573Z,11.50
2019-02-20T21:38:59.657Z,14.10
2019-02-20T21:41:57.561Z,22.27
2019-02-20T21:48:19.421Z,19.93
2019-02-20T21:51:21.144Z,17.00
2019-02-20T21:54:14.884Z,16.70
2019-02-20T21:57:04.810Z,19.00
2019-02-20T22:00:08.762Z,16.63
2019-02-20T22:02:52.806Z,16.77
2019-02-20T22:05:58.472Z,15.93
2019-02-20T22:09:23.191Z,18.93
2019-02-20T22:12:22.903Z,14.17
2019-02-20T22:15:14.763Z,17.27
2019-02-20T22:18:16.255Z,14.47
2019-02-20T22:21:21.373Z,14.00
2019-02-20T22:24:10.663Z,14.17
2019-02-20T22:27:07.089Z,14.93
2019-02-20T22:30:02.441Z,17.03
2019-02-20T22:32:57.566Z,15.07
2019-02-20T22:36:07.700Z,13.53
2019-02-20T22:39:06.574Z,14.03
2019-02-20T22:42:03.213Z,13.70
2019-02-20T22:45:03.970Z,13.17
2019-02-20T22:48:01.894Z,17.37
2019-02-20T22:50:53.641Z,13.20
2019-02-20T22:53:51.036Z,14.60
2019-02-20T22:56:48.925Z,14.20
2019-02-20T23:00:01.379Z,13.43
2019-02-20T23:02:57.924Z,13.77
2019-02-20T23:06:11.173Z,20.77
2019-02-20T23:09:13.114Z,15.43
2019-02-20T23:12:07.274Z,18.83
2019-02-20T23:14:56.589Z,17.13
2019-02-20T23:17:40.743Z,15.03
2019-02-20T23:20:35.645Z,15.97
2019-02-20T23:23:18.102Z,15.67
2019-02-20T23:26:01.646Z,14.77
2019-02-20T23:28:51.348Z,15.70
2019-02-20T23:31:23.310Z,19.40
2019-02-20T23:34:05.054Z,16.27
2019-02-20T23:36:48.984Z,15.73
2019-02-20T23:39:44.118Z,17.13
2019-02-20T23:42:18.961Z,15.90
2019-02-20T23:44:58.742Z,14.47
2019-02-20T23:48:07.143Z,17.00
2019-02-20T23:50:46.164Z,15.07
2019-02-20T23:53:25.318Z,16.03
2019-02-20T23:58:56.970Z,15.37
